createdAt,value
2017-06-17T00:01:37.758Z,20.36
2017-06-17T00:03:53.292Z,20.17
2017-06-17T00:06:17.276Z,20.3
2017-06-17T00:08:42.280Z,20.15
2017-06-17T00:10:57.852Z,20.17
2017-06-17T00:13:22.860Z,20.14
2017-06-17T00:15:47.868Z,20.18
2017-06-17T00:18:11.866Z,20.03
2017-06-17T00:20:42.517Z,19.96
2017-06-17T00:22:43.861Z,20
2017-06-17T00:25:08.883Z,19.93
2017-06-17T00:27:32.195Z,19.87
2017-06-17T00:30:03.699Z,20.03
2017-06-17T00:32:28.692Z,20.07
2017-06-17T00:34:44.267Z,19.93
2017-06-17T00:37:10.263Z,20.15
2017-06-17T00:39:43.207Z,20.11
2017-06-17T00:42:00.757Z,20.27
2017-06-17T00:44:17.322Z,20.21
2017-06-17T00:46:41.255Z,20.12
2017-06-17T00:49:21.205Z,20.21
2017-06-17T00:51:47.200Z,20.02
2017-06-17T00:54:18.709Z,19.9
2017-06-17T00:56:42.211Z,20.02
2017-06-17T00:58:43.575Z,19.77
2017-06-17T01:01:01.145Z,19.96
2017-06-17T01:03:25.129Z,19.94
2017-06-17T01:05:55.896Z,19.89
2017-06-17T01:08:11.417Z,20
2017-06-17T01:10:35.364Z,20.17
2017-06-17T01:13:06.893Z,19.92
2017-06-17T01:15:38.404Z,19.82
2017-06-17T01:18:04.352Z,19.78
2017-06-17T01:20:20.885Z,19.89
2017-06-17T01:22:22.225Z,19.87
2017-06-17T01:24:46.211Z,19.66
2017-06-17T01:27:10.148Z,19.66
2017-06-17T01:29:32.568Z,19.89
2017-06-17T01:31:58.522Z,19.71
2017-06-17T01:34:04.199Z,19.66
2017-06-17T01:36:30.159Z,19.67
2017-06-17T01:38:55.048Z,19.66
2017-06-17T01:41:18.983Z,19.71
2017-06-17T01:43:42.937Z,19.71
2017-06-17T01:45:59.412Z,19.56
2017-06-17T01:48:23.326Z,19.55
2017-06-17T01:50:39.833Z,19.7
2017-06-17T01:53:03.764Z,19.71
2017-06-17T01:55:29.706Z,19.72
2017-06-17T01:57:46.208Z,19.74
2017-06-17T02:00:10.133Z,19.66
2017-06-17T02:02:35.078Z,19.67
2017-06-17T02:04:50.583Z,19.66
2017-06-17T02:07:15.497Z,19.62
2017-06-17T02:09:41.421Z,19.6
2017-06-17T02:11:42.758Z,19.63
2017-06-17T02:14:07.716Z,19.45
2017-06-17T02:16:32.649Z,19.3
2017-06-17T02:18:56.589Z,19.15
2017-06-17T02:21:20.527Z,19.12
2017-06-17T02:23:46.440Z,19.17
2017-06-17T02:26:10.344Z,19.15
2017-06-17T02:28:34.309Z,19.17
2017-06-17T02:30:49.787Z,19.07
2017-06-17T02:33:13.664Z,19.26
2017-06-17T02:35:37.558Z,19.08
2017-06-17T02:38:01.460Z,19.17
2017-06-17T02:40:34.100Z,19.04
2017-06-17T02:42:58.000Z,19.17
2017-06-17T02:45:23.847Z,19.2
2017-06-17T02:48:02.601Z,19.27
2017-06-17T02:50:19.102Z,19.16
2017-06-17T02:51:55.914Z,19.26
2017-06-17T02:54:20.853Z,19
2017-06-17T02:57:00.735Z,19.2
2017-06-17T02:59:10.610Z,19.04
2017-06-17T03:01:34.511Z,19.07
2017-06-17T03:03:58.419Z,19.12
2017-06-17T03:06:22.298Z,19.07
2017-06-17T03:08:46.188Z,18.82
2017-06-17T03:11:10.080Z,18.86
2017-06-17T03:13:41.946Z,18.71
2017-06-17T03:15:43.293Z,18.73
2017-06-17T03:18:08.200Z,18.71
2017-06-17T03:20:09.496Z,18.79
2017-06-17T03:22:34.406Z,18.7
2017-06-17T03:24:58.281Z,18.78
2017-06-17T03:27:23.163Z,18.79
2017-06-17T03:29:53.869Z,18.81
2017-06-17T03:32:34.371Z,18.7
2017-06-17T03:35:05.869Z,18.7
2017-06-17T03:37:27.877Z,18.94
2017-06-17T03:39:52.744Z,18.85
2017-06-17T03:42:09.190Z,18.97
2017-06-17T03:44:10.516Z,19.16
2017-06-17T03:46:33.856Z,19.04
2017-06-17T03:49:04.350Z,19.23
2017-06-17T03:51:30.212Z,19.26
2017-06-17T03:53:56.087Z,19.48
2017-06-17T03:56:26.858Z,19.45
2017-06-17T03:58:48.852Z,19.53
2017-06-17T04:01:12.795Z,19.7
2017-06-17T04:03:36.705Z,19.72
2017-06-17T04:06:01.605Z,19.71
2017-06-17T04:08:33.359Z,19.89
2017-06-17T04:10:49.839Z,19.97
2017-06-17T04:13:14.808Z,20.1
2017-06-17T04:15:38.731Z,20.04
2017-06-17T04:17:55.251Z,20.34
2017-06-17T04:20:17.359Z,20.83
2017-06-17T04:22:25.484Z,22.98
2017-06-17T04:24:18.402Z,25.19
2017-06-17T04:26:42.518Z,25.91
2017-06-17T04:29:13.728Z,28.06
2017-06-17T04:31:39.168Z,28.4
2017-06-17T04:34:11.721Z,30.18
2017-06-17T04:36:20.511Z,32.61
2017-06-17T04:38:37.851Z,32.83
2017-06-17T04:40:54.340Z,35.03
2017-06-17T04:43:20.409Z,35.78
2017-06-17T04:45:46.621Z,37.28
2017-06-17T04:48:20.737Z,38.5
2017-06-17T04:50:31.054Z,39.01
2017-06-17T04:52:58.637Z,40.13
2017-06-17T04:57:00.123Z,41.88
2017-06-17T05:01:02.337Z,42.25
2017-06-17T05:03:30.407Z,42.49
2017-06-17T05:05:48.966Z,44.04
2017-06-17T05:08:30.064Z,44.62
2017-06-17T05:10:57.351Z,45.74
2017-06-17T05:15:00.065Z,45.32
2017-06-17T05:18:54.317Z,46.56
2017-06-17T05:21:28.515Z,46.94
2017-06-17T05:23:56.152Z,46.68
2017-06-17T05:26:24.859Z,48.3
2017-06-17T05:28:51.579Z,45.71
2017-06-17T05:31:25.085Z,48.52
2017-06-17T05:34:00.535Z,50.28
2017-06-17T05:37:56.014Z,51.61
2017-06-17T05:40:21.370Z,52.62
2017-06-17T05:44:25.888Z,49.86
2017-06-17T05:47:09.999Z,51.95
2017-06-17T05:49:53.002Z,51.37
2017-06-17T05:53:56.166Z,54.34
2017-06-17T05:57:59.436Z,55.65
2017-06-17T06:00:33.578Z,53.72
2017-06-17T06:04:28.811Z,54.27
2017-06-17T06:08:24.296Z,56.16
2017-06-17T06:10:59.737Z,57.09
2017-06-17T06:13:28.366Z,57.9
2017-06-17T06:15:57.000Z,55.13
2017-06-17T06:18:26.690Z,57.09
2017-06-17T06:20:45.774Z,54.41
2017-06-17T06:23:04.746Z,55.86
2017-06-17T06:25:39.228Z,55.16
2017-06-17T06:28:08.053Z,53.84
2017-06-17T06:32:12.327Z,46.61
2017-06-17T06:34:31.538Z,43.94
2017-06-17T06:37:06.909Z,43.8
2017-06-17T06:39:51.412Z,45.11
2017-06-17T06:42:20.204Z,43.87
2017-06-17T06:44:56.419Z,41.65
2017-06-17T06:47:22.918Z,44.25
2017-06-17T06:49:57.919Z,45.2
2017-06-17T06:52:23.418Z,43.84
2017-06-17T06:54:58.434Z,42.65
2017-06-17T06:57:39.923Z,40.85
2017-06-17T07:00:06.778Z,38.31
2017-06-17T07:02:26.869Z,39.15
2017-06-17T07:04:54.435Z,39.04
2017-06-17T07:07:12.337Z,37.72
2017-06-17T07:09:39.722Z,40.96
2017-06-17T07:11:59.485Z,41.24
2017-06-17T07:14:26.739Z,39.7
2017-06-17T07:16:28.622Z,39.04
2017-06-17T07:18:46.168Z,41.23
2017-06-17T07:21:10.309Z,41.73
2017-06-17T07:23:35.812Z,39.93
2017-06-17T07:26:01.860Z,41.36
2017-06-17T07:28:28.909Z,42.27
2017-06-17T07:30:55.932Z,42.51
2017-06-17T07:33:36.823Z,43.7
2017-06-17T07:36:03.904Z,41.57
2017-06-17T07:38:12.877Z,38.58
2017-06-17T07:40:40.970Z,40.14
2017-06-17T07:43:07.006Z,38.47
2017-06-17T07:45:33.067Z,38.68
2017-06-17T07:48:01.111Z,38.7
2017-06-17T07:50:33.869Z,39.33
2017-06-17T07:52:59.893Z,38.96
2017-06-17T07:55:34.847Z,39.42
2017-06-17T07:57:11.556Z,38.19
2017-06-17T07:59:52.472Z,37.03
2017-06-17T08:02:25.479Z,37.56
2017-06-17T08:04:52.510Z,35.97
2017-06-17T08:06:46.831Z,38.14
2017-06-17T08:09:14.867Z,39.44
2017-06-17T08:11:17.204Z,39.3
2017-06-17T08:13:43.254Z,39.56
2017-06-17T08:16:09.272Z,33.32
2017-06-17T08:18:35.205Z,35.69
2017-06-17T08:21:03.022Z,37.92
2017-06-17T08:23:13.566Z,36.84
2017-06-17T08:25:40.451Z,40.22
2017-06-17T08:27:42.774Z,41.39
2017-06-17T08:30:08.772Z,41.18
2017-06-17T08:32:34.728Z,40.43
2017-06-17T08:35:00.728Z,38
2017-06-17T08:37:34.495Z,35.75
2017-06-17T08:40:00.343Z,34.96
2017-06-17T08:42:17.597Z,34.6
2017-06-17T08:44:44.231Z,34.24
2017-06-17T08:47:10.837Z,33.13
2017-06-17T08:49:37.331Z,32.6
2017-06-17T08:52:04.745Z,31.66
2017-06-17T08:54:30.098Z,31.08
2017-06-17T08:56:46.851Z,30.55
2017-06-17T08:59:13.118Z,30.83
2017-06-17T09:01:38.321Z,32.08
2017-06-17T09:03:55.023Z,31.62
2017-06-17T09:06:11.721Z,31.18
2017-06-17T09:08:36.877Z,30.98
2017-06-17T09:11:02.007Z,31.92
2017-06-17T09:13:28.223Z,32.79
2017-06-17T09:15:44.811Z,33.13
2017-06-17T09:18:01.497Z,32.59
2017-06-17T09:20:25.022Z,32.64
2017-06-17T09:22:50.206Z,32.41
2017-06-17T09:25:06.818Z,32.27
2017-06-17T09:27:38.025Z,33.17
2017-06-17T09:29:54.725Z,34.41
2017-06-17T09:32:19.948Z,34.7
2017-06-17T09:34:36.693Z,34.18
2017-06-17T09:37:03.979Z,35.3
2017-06-17T09:39:29.302Z,37.03
2017-06-17T09:41:54.676Z,37.98
2017-06-17T09:44:11.593Z,37.91
2017-06-17T09:46:37.070Z,35.16
2017-06-17T09:49:02.564Z,34.86
2017-06-17T09:51:28.011Z,35.25
2017-06-17T09:53:53.513Z,35.31
2017-06-17T09:56:18.928Z,35.22
2017-06-17T09:58:44.373Z,34.24
2017-06-17T10:01:09.822Z,32.9
2017-06-17T10:03:35.206Z,33.39
2017-06-17T10:05:52.047Z,32.94
2017-06-17T10:08:17.374Z,33.12
2017-06-17T10:10:34.173Z,32.98
2017-06-17T10:12:59.476Z,33.39
2017-06-17T10:15:01.659Z,34.09
2017-06-17T10:17:03.351Z,32.82
2017-06-17T10:19:28.717Z,33.04
2017-06-17T10:21:54.009Z,33.39
2017-06-17T10:24:05.064Z,32.17
2017-06-17T10:26:30.359Z,33.33
2017-06-17T10:28:55.663Z,33.51
2017-06-17T10:31:20.971Z,34.53
2017-06-17T10:33:46.278Z,33.7
2017-06-17T10:36:11.601Z,33.1
2017-06-17T10:38:36.890Z,33.4
2017-06-17T10:41:02.196Z,33.69
2017-06-17T10:43:27.483Z,33.85
2017-06-17T10:45:52.801Z,33.69
2017-06-17T10:48:18.121Z,32.41
2017-06-17T10:50:43.425Z,32.71
2017-06-17T10:53:08.690Z,32.81
2017-06-17T10:55:33.977Z,32.07
2017-06-17T10:57:59.255Z,31.13
2017-06-17T11:00:24.504Z,32.09
2017-06-17T11:02:41.260Z,31.64
2017-06-17T11:05:06.488Z,32.07
2017-06-17T11:07:14.701Z,32.2
2017-06-17T11:09:39.885Z,31.07
2017-06-17T11:12:05.049Z,31.32
2017-06-17T11:14:21.702Z,31.62
2017-06-17T11:16:46.856Z,32.66
2017-06-17T11:19:12.031Z,33.66
2017-06-17T11:21:37.196Z,32.75
2017-06-17T11:23:53.891Z,31.35
2017-06-17T11:25:55.524Z,31.45
2017-06-17T11:28:20.715Z,31.78
2017-06-17T11:30:30.919Z,31.77
2017-06-17T11:32:56.092Z,32.44
2017-06-17T11:35:21.249Z,32.22
2017-06-17T11:37:46.377Z,31.51
2017-06-17T11:39:55.523Z,31.25
2017-06-17T11:42:21.631Z,32.31
2017-06-17T11:44:46.762Z,31.98
2017-06-17T11:47:03.388Z,31.39
2017-06-17T11:49:28.489Z,30.1
2017-06-17T11:51:30.660Z,30.62
2017-06-17T11:53:47.265Z,30.36
2017-06-17T11:56:12.358Z,31.17
2017-06-17T11:58:37.359Z,32.02
2017-06-17T12:01:02.430Z,32.19
2017-06-17T12:03:27.515Z,31.77
2017-06-17T12:05:52.600Z,30.23
2017-06-17T12:08:17.704Z,29.2
2017-06-17T12:10:42.744Z,30.58
2017-06-17T12:12:50.800Z,28.77
2017-06-17T12:15:15.835Z,30.44
2017-06-17T12:17:32.367Z,30.81
2017-06-17T12:19:57.393Z,31.57
2017-06-17T12:22:22.403Z,32.6
2017-06-17T12:24:47.457Z,32.04
2017-06-17T12:27:03.975Z,32.02
2017-06-17T12:29:29.024Z,31.72
2017-06-17T12:31:45.686Z,32.04
2017-06-17T12:34:10.700Z,31.98
2017-06-17T12:36:35.783Z,32.16
2017-06-17T12:38:52.367Z,31.74
2017-06-17T12:41:17.489Z,31.6
2017-06-17T12:43:34.064Z,30.92
2017-06-17T12:45:59.124Z,31.04
2017-06-17T12:48:15.672Z,30.7
2017-06-17T12:50:40.686Z,30.8
2017-06-17T12:53:05.719Z,31.48
2017-06-17T12:55:22.263Z,31.47
2017-06-17T12:57:47.298Z,31.33
2017-06-17T13:00:12.333Z,31.77
2017-06-17T13:02:28.907Z,31.82
2017-06-17T13:04:45.456Z,31.89
2017-06-17T13:07:01.989Z,32.29
2017-06-17T13:09:27.020Z,31.6
2017-06-17T13:11:43.531Z,31.54
2017-06-17T13:14:08.498Z,32.16
2017-06-17T13:16:33.510Z,30.85
2017-06-17T13:18:58.515Z,30.67
2017-06-17T13:20:51.632Z,31.37
2017-06-17T13:23:08.181Z,30.73
2017-06-17T13:25:33.186Z,30.7
2017-06-17T13:27:35.280Z,30.85
2017-06-17T13:30:00.234Z,30.63
2017-06-17T13:32:10.392Z,30.86
2017-06-17T13:34:35.391Z,30.54
2017-06-17T13:36:51.888Z,29.84
2017-06-17T13:39:16.871Z,30.58
2017-06-17T13:41:18.565Z,30.26
2017-06-17T13:43:43.605Z,31.1
2017-06-17T13:46:08.585Z,31.77
2017-06-17T13:48:25.053Z,31.9
2017-06-17T13:50:50.018Z,31.18
2017-06-17T13:53:14.988Z,31.2
2017-06-17T13:55:39.936Z,30.74
2017-06-17T13:57:56.368Z,30.95
2017-06-17T14:00:12.864Z,30.74
2017-06-17T14:02:14.488Z,31.3
2017-06-17T14:04:39.494Z,30.52
2017-06-17T14:07:04.417Z,30.03
2017-06-17T14:09:20.847Z,30.13
2017-06-17T14:11:45.749Z,30.83
2017-06-17T14:14:10.700Z,30.49
2017-06-17T14:16:35.587Z,30.43
2017-06-17T14:19:00.503Z,31.04
2017-06-17T14:21:25.417Z,31.66
2017-06-17T14:23:41.797Z,31.17
2017-06-17T14:25:58.242Z,30.56
2017-06-17T14:28:23.133Z,30.8
2017-06-17T14:30:48.065Z,30.39
2017-06-17T14:33:12.983Z,30.29
2017-06-17T14:35:37.901Z,30.54
2017-06-17T14:37:54.342Z,30.81
2017-06-17T14:40:19.254Z,30.8
2017-06-17T14:42:44.149Z,30.78
2017-06-17T14:45:00.604Z,30.49
2017-06-17T14:47:25.499Z,29.76
2017-06-17T14:49:50.388Z,29.37
2017-06-17T14:52:06.796Z,29.64
2017-06-17T14:54:23.196Z,29.71
2017-06-17T14:56:39.563Z,29.22
2017-06-17T14:58:55.942Z,29.86
2017-06-17T15:01:12.317Z,29.43
2017-06-17T15:03:37.105Z,29.47
2017-06-17T15:06:01.923Z,28.68
2017-06-17T15:08:18.218Z,28.22
2017-06-17T15:10:43.010Z,28.52
2017-06-17T15:12:59.309Z,29
2017-06-17T15:15:24.035Z,28.03
2017-06-17T15:17:48.794Z,28.33
2017-06-17T15:20:13.530Z,28.45
2017-06-17T15:22:39.282Z,28.89
2017-06-17T15:25:04.038Z,28.8
2017-06-17T15:27:28.753Z,28.8
2017-06-17T15:29:53.492Z,29.09
2017-06-17T15:32:18.253Z,29.13
2017-06-17T15:34:42.986Z,29.09
2017-06-17T15:37:07.758Z,28.46
2017-06-17T15:39:32.519Z,28.87
2017-06-17T15:41:34.553Z,29.32
2017-06-17T15:43:50.897Z,28.89
2017-06-17T15:46:15.675Z,28.16
2017-06-17T15:48:23.443Z,27.93
2017-06-17T15:50:48.134Z,28.12
2017-06-17T15:53:04.395Z,28
2017-06-17T15:55:06.453Z,28.03
2017-06-17T15:57:32.173Z,28.13
2017-06-17T15:59:56.893Z,28.22
2017-06-17T16:02:21.580Z,27.78
2017-06-17T16:04:53.213Z,28.03
2017-06-17T16:07:09.409Z,28.2
2017-06-17T16:09:25.609Z,28.08
2017-06-17T16:11:50.262Z,27.97
2017-06-17T16:13:57.953Z,28.23
2017-06-17T16:16:22.598Z,28.34
2017-06-17T16:18:48.256Z,27.6
2017-06-17T16:21:12.915Z,27.67
2017-06-17T16:23:37.603Z,27.64
2017-06-17T16:25:53.797Z,27.83
2017-06-17T16:28:09.976Z,27.9
2017-06-17T16:30:34.621Z,27.88
2017-06-17T16:32:10.949Z,28.09
2017-06-17T16:34:35.601Z,27.79
2017-06-17T16:37:00.226Z,26.89
2017-06-17T16:39:24.845Z,27.16
2017-06-17T16:41:49.473Z,27.22
2017-06-17T16:44:15.065Z,27.23
2017-06-17T16:46:39.659Z,27.63
2017-06-17T16:49:04.262Z,26.83
2017-06-17T16:51:20.373Z,27.28
2017-06-17T16:53:44.960Z,27.01
2017-06-17T16:55:52.617Z,26.68
2017-06-17T16:58:17.126Z,26.48
2017-06-17T17:00:41.656Z,26.34
2017-06-17T17:03:06.207Z,26.79
2017-06-17T17:05:30.746Z,26.67
2017-06-17T17:07:55.290Z,26.64
2017-06-17T17:10:20.827Z,26.7
2017-06-17T17:12:31.380Z,26.39
2017-06-17T17:14:47.486Z,26.45
2017-06-17T17:17:12.029Z,26.64
2017-06-17T17:19:36.503Z,26.71
2017-06-17T17:22:00.971Z,26.67
2017-06-17T17:24:25.512Z,27.03
2017-06-17T17:26:50.037Z,27.1
2017-06-17T17:29:14.555Z,27.13
2017-06-17T17:31:39.074Z,26.6
2017-06-17T17:33:46.684Z,26.89
2017-06-17T17:36:11.209Z,26.83
2017-06-17T17:38:35.733Z,26.82
2017-06-17T17:41:00.257Z,27.05
2017-06-17T17:43:24.739Z,27.13
2017-06-17T17:45:49.267Z,26.85
2017-06-17T17:48:13.780Z,26.56
2017-06-17T17:50:21.362Z,26.49
2017-06-17T17:52:45.866Z,26.45
2017-06-17T17:55:10.375Z,26.59
2017-06-17T17:57:34.869Z,26.64
2017-06-17T17:59:59.371Z,26.34
2017-06-17T18:02:15.422Z,26.22
2017-06-17T18:04:22.961Z,26.36
2017-06-17T18:06:47.452Z,26.51
2017-06-17T18:09:11.934Z,26.08
2017-06-17T18:11:36.420Z,26.1
2017-06-17T18:14:00.897Z,26.03
2017-06-17T18:16:25.384Z,26.18
2017-06-17T18:18:01.720Z,26.13
2017-06-17T18:20:03.182Z,26.18
2017-06-17T18:22:27.682Z,26.04
2017-06-17T18:24:52.081Z,26.01
2017-06-17T18:26:53.560Z,25.81
2017-06-17T18:29:18.031Z,25.49
2017-06-17T18:31:42.491Z,25.41
2017-06-17T18:34:06.918Z,25.37
2017-06-17T18:36:08.392Z,25.19
2017-06-17T18:38:32.792Z,24.63
2017-06-17T18:40:57.174Z,25
2017-06-17T18:43:21.601Z,25.15
2017-06-17T18:45:46.023Z,25.14
2017-06-17T18:48:10.554Z,25.21
2017-06-17T18:50:35.046Z,25.34
2017-06-17T18:52:59.540Z,25.04
2017-06-17T18:55:23.929Z,24.97
2017-06-17T18:57:48.339Z,25.22
2017-06-17T19:00:12.767Z,25.21
2017-06-17T19:02:37.171Z,25.16
2017-06-17T19:04:53.088Z,25.22
2017-06-17T19:07:17.479Z,25.04
2017-06-17T19:09:33.389Z,25.04
2017-06-17T19:11:49.319Z,24.74
2017-06-17T19:14:13.697Z,24.65
2017-06-17T19:16:38.100Z,24.86
2017-06-17T19:19:02.478Z,25.04
2017-06-17T19:21:26.837Z,24.79
2017-06-17T19:23:51.149Z,24.47
2017-06-17T19:26:07.037Z,24.75
2017-06-17T19:28:22.940Z,24.71
2017-06-17T19:30:38.823Z,24.74
2017-06-17T19:33:03.176Z,24.65
2017-06-17T19:35:19.089Z,24.81
2017-06-17T19:37:34.977Z,25.03
2017-06-17T19:39:59.328Z,24.61
2017-06-17T19:42:06.781Z,24.82
2017-06-17T19:44:31.107Z,24.86
2017-06-17T19:46:55.476Z,24.81
2017-06-17T19:49:19.828Z,24.75
2017-06-17T19:51:44.195Z,24.62
2017-06-17T19:54:08.521Z,24.85
2017-06-17T19:56:32.874Z,24.82
2017-06-17T19:58:57.218Z,24.88
2017-06-17T20:01:21.575Z,24.65
2017-06-17T20:03:23.030Z,24.31
2017-06-17T20:05:47.362Z,24.58
2017-06-17T20:08:11.688Z,24.62
2017-06-17T20:10:35.999Z,24.13
2017-06-17T20:13:00.321Z,24.19
2017-06-17T20:15:24.646Z,24.28
2017-06-17T20:17:48.956Z,24.32
2017-06-17T20:20:13.263Z,24.14
2017-06-17T20:22:20.659Z,24.26
2017-06-17T20:24:44.919Z,24.01
2017-06-17T20:26:46.356Z,24.21
2017-06-17T20:29:10.655Z,24.18
2017-06-17T20:31:34.958Z,23.95
2017-06-17T20:33:59.246Z,24.24
2017-06-17T20:36:23.534Z,24.31
2017-06-17T20:38:47.801Z,24.01
2017-06-17T20:41:12.108Z,24.19
2017-06-17T20:43:27.928Z,23.96
2017-06-17T20:45:43.752Z,23.95
2017-06-17T20:48:08.024Z,23.91
2017-06-17T20:50:32.289Z,23.82
2017-06-17T20:52:56.558Z,23.84
2017-06-17T20:55:20.829Z,23.88
2017-06-17T20:57:36.685Z,23.73
2017-06-17T21:00:00.946Z,23.51
2017-06-17T21:02:25.192Z,23.47
2017-06-17T21:04:49.447Z,23.47
2017-06-17T21:07:13.705Z,23.45
2017-06-17T21:09:37.963Z,23.48
2017-06-17T21:12:02.205Z,23.59
2017-06-17T21:14:18.009Z,23.44
2017-06-17T21:16:42.277Z,23.74
2017-06-17T21:19:06.499Z,23.56
2017-06-17T21:21:16.457Z,23.48
2017-06-17T21:23:26.425Z,23.33
2017-06-17T21:25:50.695Z,23.08
2017-06-17T21:28:00.683Z,23.28
2017-06-17T21:30:10.625Z,23.29
2017-06-17T21:32:34.908Z,23.32
2017-06-17T21:34:50.685Z,23.32
2017-06-17T21:37:06.474Z,23.33
2017-06-17T21:39:30.710Z,23.49
2017-06-17T21:41:54.930Z,23.4
2017-06-17T21:44:10.702Z,22.68
2017-06-17T21:46:34.929Z,22.7
2017-06-17T21:48:50.696Z,22.61
2017-06-17T21:51:14.849Z,22.52
2017-06-17T21:53:39.033Z,22.59
2017-06-17T21:56:03.217Z,22.83
2017-06-17T21:58:27.382Z,23.02
2017-06-17T22:00:51.589Z,23.16
2017-06-17T22:03:15.828Z,23.33
2017-06-17T22:05:40.052Z,23.26
2017-06-17T22:08:04.272Z,23.18
2017-06-17T22:10:28.496Z,22.99
2017-06-17T22:12:52.660Z,22.65
2017-06-17T22:15:08.402Z,22.73
2017-06-17T22:17:24.132Z,22.65
2017-06-17T22:19:48.327Z,22.67
2017-06-17T22:22:04.063Z,22.67
2017-06-17T22:24:28.241Z,22.63
2017-06-17T22:26:52.438Z,22.86
2017-06-17T22:28:29.012Z,22.84
2017-06-17T22:30:53.241Z,23.02
2017-06-17T22:33:17.361Z,23.16
2017-06-17T22:35:33.091Z,23.08
2017-06-17T22:37:57.234Z,22.92
2017-06-17T22:40:21.409Z,22.8
2017-06-17T22:42:37.151Z,22.38
2017-06-17T22:45:01.355Z,22.44
2017-06-17T22:47:25.576Z,22.7
2017-06-17T22:49:49.796Z,22.67
2017-06-17T22:52:13.914Z,22.68
2017-06-17T22:54:38.100Z,22.73
2017-06-17T22:57:02.243Z,22.92
2017-06-17T22:59:17.989Z,22.78
2017-06-17T23:01:42.201Z,22.68
2017-06-17T23:03:57.982Z,22.68
2017-06-17T23:06:22.208Z,22.77
2017-06-17T23:08:46.425Z,23.02
2017-06-17T23:11:10.648Z,23.04
2017-06-17T23:13:26.355Z,23.23
2017-06-17T23:15:42.125Z,23.2
2017-06-17T23:18:06.287Z,23.14
2017-06-17T23:20:30.517Z,22.99
2017-06-17T23:22:46.265Z,23.07
2017-06-17T23:25:10.474Z,23.1
2017-06-17T23:27:26.245Z,22.92
2017-06-17T23:29:50.443Z,23.02
2017-06-17T23:32:14.629Z,22.73
2017-06-17T23:34:30.337Z,23.01
2017-06-17T23:36:54.529Z,23.06
2017-06-17T23:39:18.723Z,23.06
2017-06-17T23:41:42.935Z,23.02
2017-06-17T23:44:07.130Z,23.1
2017-06-17T23:46:22.875Z,23.28
2017-06-17T23:48:47.078Z,23.36
2017-06-17T23:51:11.200Z,23.45
2017-06-17T23:53:26.906Z,23.52
2017-06-17T23:55:42.645Z,23.47
2017-06-17T23:57:58.393Z,23.45
